createdAt,value
2019-06-01T00:00:16.532Z,7.37
2019-06-01T00:02:56.015Z,7.53
2019-06-01T00:05:24.952Z,7.83
2019-06-01T00:07:57.512Z,8.13
2019-06-01T00:10:30.722Z,8.45
2019-06-01T00:13:03.352Z,8.23
2019-06-01T00:15:35.912Z,7.35
2019-06-01T00:18:09.492Z,6.90
2019-06-01T00:20:42.219Z,7.83
2019-06-01T00:23:14.705Z,7.75
2019-06-01T00:25:48.696Z,7.60
2019-06-01T00:28:21.722Z,7.72
2019-06-01T00:30:54.345Z,7.85
2019-06-01T00:33:26.872Z,7.03
2019-06-01T00:35:59.370Z,7.60
2019-06-01T00:38:32.032Z,8.23
2019-06-01T00:41:04.435Z,7.90
2019-06-01T00:43:36.942Z,7.47
2019-06-01T00:46:09.443Z,6.92
2019-06-01T00:48:43.723Z,6.40
2019-06-01T00:51:16.241Z,6.92
2019-06-01T00:53:49.563Z,6.85
2019-06-01T00:56:22.470Z,7.35
2019-06-01T00:58:55.342Z,7.08
2019-06-01T01:01:28.402Z,6.22
2019-06-01T01:04:01.192Z,6.58
2019-06-01T01:06:34.174Z,6.37
2019-06-01T01:09:10.062Z,6.90
2019-06-01T01:11:43.135Z,6.72
2019-06-01T01:14:16.749Z,6.00
2019-06-01T01:16:49.501Z,6.50
2019-06-01T01:19:21.872Z,5.78
2019-06-01T01:21:56.320Z,5.78
2019-06-01T01:24:28.942Z,5.97
2019-06-01T01:27:01.553Z,6.17
2019-06-01T01:29:33.994Z,5.92
2019-06-01T01:32:06.522Z,5.72
2019-06-01T01:34:39.023Z,5.70
2019-06-01T01:37:11.703Z,5.70
2019-06-01T01:39:44.072Z,6.60
2019-06-01T01:42:16.572Z,7.22
2019-06-01T01:44:50.308Z,6.80
2019-06-01T01:47:23.263Z,6.95
2019-06-01T01:49:56.154Z,7.37
2019-06-01T01:52:28.800Z,7.80
2019-06-01T01:55:01.353Z,6.95
2019-06-01T01:57:34.172Z,7.60
2019-06-01T02:00:09.222Z,6.62
2019-06-01T02:02:42.015Z,6.92
2019-06-01T02:05:14.800Z,6.90
2019-06-01T02:07:47.553Z,7.53
2019-06-01T02:10:20.326Z,7.25
2019-06-01T02:12:53.573Z,6.80
2019-06-01T02:15:26.363Z,7.03
2019-06-01T02:18:00.221Z,7.62
2019-06-01T02:20:33.382Z,7.58
2019-06-01T02:23:06.524Z,6.87
2019-06-01T02:25:39.403Z,7.53
2019-06-01T02:28:12.622Z,7.55
2019-06-01T02:30:45.414Z,7.67
2019-06-01T02:33:18.258Z,7.50
2019-06-01T02:35:50.873Z,8.38
2019-06-01T02:38:23.782Z,7.62
2019-06-01T02:40:57.121Z,7.15
2019-06-01T02:43:30.945Z,6.55
2019-06-01T02:46:06.621Z,6.30
2019-06-01T02:48:38.053Z,5.92
2019-06-01T02:51:10.685Z,5.90
2019-06-01T02:53:43.423Z,6.75
2019-06-01T02:56:16.792Z,6.62
2019-06-01T02:58:50.506Z,6.50
2019-06-01T03:01:38.339Z,6.75
2019-06-01T03:04:12.292Z,6.58
2019-06-01T03:06:45.862Z,7.03
2019-06-01T03:09:20.062Z,6.10
2019-06-01T03:11:55.673Z,6.53
2019-06-01T03:14:30.332Z,6.22
2019-06-01T03:17:05.874Z,6.00
2019-06-01T03:19:41.092Z,6.53
2019-06-01T03:22:16.262Z,7.20
2019-06-01T03:24:51.472Z,6.97
2019-06-01T03:27:25.423Z,6.83
2019-06-01T03:30:00.334Z,6.83
2019-06-01T03:32:37.199Z,6.62
2019-06-01T03:35:09.224Z,6.25
2019-06-01T03:37:43.313Z,6.08
2019-06-01T03:40:23.847Z,6.45
2019-06-01T03:42:51.142Z,6.25
2019-06-01T03:45:23.874Z,5.80
2019-06-01T03:47:56.792Z,6.00
2019-06-01T03:50:29.772Z,5.95
2019-06-01T03:53:03.757Z,6.62
2019-06-01T03:55:36.732Z,6.28
2019-06-01T03:58:09.372Z,5.83
2019-06-01T04:00:42.243Z,6.33
2019-06-01T04:03:15.325Z,6.28
2019-06-01T04:05:48.503Z,6.17
2019-06-01T04:08:21.522Z,6.65
2019-06-01T04:10:54.202Z,5.67
2019-06-01T04:13:27.892Z,6.30
2019-06-01T04:16:01.737Z,6.00
2019-06-01T04:18:34.494Z,6.72
2019-06-01T04:21:08.132Z,6.50
2019-06-01T04:23:41.144Z,6.20
2019-06-01T04:26:13.942Z,5.97
2019-06-01T04:28:46.534Z,5.92
2019-06-01T04:31:20.665Z,5.75
2019-06-01T04:33:53.602Z,6.08
2019-06-01T04:36:26.373Z,6.17
2019-06-01T04:38:59.302Z,6.37
2019-06-01T04:41:32.222Z,5.78
2019-06-01T04:44:05.882Z,6.17
2019-06-01T04:46:38.813Z,5.40
2019-06-01T04:49:13.282Z,5.20
2019-06-01T04:51:46.175Z,5.45
2019-06-01T04:54:18.906Z,5.15
2019-06-01T04:56:51.532Z,5.90
2019-06-01T04:59:24.731Z,5.78
2019-06-01T05:01:57.422Z,5.78
2019-06-01T05:04:30.093Z,5.53
2019-06-01T05:07:02.692Z,6.70
2019-06-01T05:09:35.682Z,6.00
2019-06-01T05:12:09.252Z,6.55
2019-06-01T05:14:42.327Z,6.30
2019-06-01T05:17:16.720Z,6.28
2019-06-01T05:19:50.706Z,5.30
2019-06-01T05:22:23.573Z,6.30
2019-06-01T05:24:56.654Z,6.75
2019-06-01T05:27:30.222Z,6.05
2019-06-01T05:30:03.650Z,6.72
2019-06-01T05:32:36.413Z,6.58
2019-06-01T05:35:10.105Z,5.87
2019-06-01T05:37:42.912Z,6.33
2019-06-01T05:40:16.648Z,5.55
2019-06-01T05:42:50.202Z,5.40
2019-06-01T05:45:23.233Z,5.33
2019-06-01T05:47:56.092Z,4.72
2019-06-01T05:50:29.032Z,5.28
2019-06-01T05:53:01.747Z,5.95
2019-06-01T05:55:35.112Z,6.25
2019-06-01T05:58:07.833Z,5.60
2019-06-01T06:00:42.562Z,5.12
2019-06-01T06:03:19.070Z,5.70
2019-06-01T06:05:49.932Z,5.70
2019-06-01T06:08:23.952Z,5.62
2019-06-01T06:10:56.702Z,5.78
2019-06-01T06:13:29.620Z,5.28
2019-06-01T06:16:02.473Z,5.20
2019-06-01T06:18:35.582Z,5.90
2019-06-01T06:21:08.292Z,5.78
2019-06-01T06:23:41.180Z,5.08
2019-06-01T06:26:15.506Z,5.72
2019-06-01T06:28:48.367Z,4.90
2019-06-01T06:31:21.242Z,4.75
2019-06-01T06:33:56.836Z,4.53
2019-06-01T06:36:28.692Z,4.60
2019-06-01T06:39:04.635Z,4.53
2019-06-01T06:41:37.062Z,4.62
2019-06-01T06:44:09.780Z,4.60
2019-06-01T06:46:42.445Z,4.30
2019-06-01T06:49:15.137Z,3.92
2019-06-01T06:51:47.782Z,3.75
2019-06-01T06:54:20.359Z,3.83
2019-06-01T06:56:53.033Z,3.77
2019-06-01T06:59:26.926Z,3.92
2019-06-01T07:01:59.724Z,3.37
2019-06-01T07:04:32.641Z,3.42
2019-06-01T07:07:05.508Z,3.37
2019-06-01T07:09:38.172Z,3.30
2019-06-01T07:12:10.722Z,2.87
2019-06-01T07:14:43.534Z,3.40
2019-06-01T07:17:16.320Z,3.20
2019-06-01T07:19:50.029Z,3.10
2019-06-01T07:22:23.794Z,3.60
2019-06-01T07:24:56.392Z,3.58
2019-06-01T07:27:29.239Z,3.52
2019-06-01T07:30:01.793Z,3.02
2019-06-01T07:32:34.645Z,3.47
2019-06-01T07:35:07.472Z,3.40
2019-06-01T07:37:39.982Z,3.25
2019-06-01T07:40:13.878Z,2.85
2019-06-01T07:42:47.302Z,2.50
2019-06-01T07:45:20.808Z,2.77
2019-06-01T07:47:53.385Z,3.02
2019-06-01T07:50:26.041Z,2.92
2019-06-01T07:52:58.872Z,3.05
2019-06-01T07:55:31.740Z,3.00
2019-06-01T07:58:04.582Z,3.12
2019-06-01T08:00:37.432Z,3.00
2019-06-01T08:03:10.192Z,2.80
2019-06-01T08:05:42.752Z,3.10
2019-06-01T08:08:15.702Z,3.33
2019-06-01T08:10:49.114Z,2.98
2019-06-01T08:13:21.704Z,2.83
2019-06-01T08:15:54.762Z,2.77
2019-06-01T08:18:28.261Z,2.77
2019-06-01T08:21:00.973Z,3.22
2019-06-01T08:23:33.518Z,2.87
2019-06-01T08:26:06.133Z,3.37
2019-06-01T08:28:38.723Z,3.75
2019-06-01T08:31:11.352Z,3.70
2019-06-01T08:33:43.802Z,4.22
2019-06-01T08:36:16.342Z,6.03
2019-06-01T08:38:48.813Z,15.80
2019-06-01T08:41:21.753Z,2.83
2019-06-01T08:43:54.533Z,2.67
2019-06-01T08:46:27.783Z,3.00
2019-06-01T08:49:00.562Z,2.70
2019-06-01T08:51:34.173Z,2.52
2019-06-01T08:54:06.972Z,2.55
2019-06-01T08:56:39.972Z,2.40
2019-06-01T08:59:13.882Z,2.22
2019-06-01T09:01:47.863Z,2.20
2019-06-01T09:04:20.933Z,2.35
2019-06-01T09:06:53.703Z,2.00
2019-06-01T09:09:26.897Z,2.30
2019-06-01T09:11:59.665Z,2.42
2019-06-01T09:14:35.559Z,2.33
2019-06-01T09:17:08.243Z,2.47
2019-06-01T09:19:41.003Z,3.22
2019-06-01T09:22:14.133Z,2.40
2019-06-01T09:24:46.916Z,2.40
2019-06-01T09:27:20.032Z,3.10
2019-06-01T09:29:52.683Z,2.80
2019-06-01T09:32:26.070Z,2.47
2019-06-01T09:34:58.862Z,1.80
2019-06-01T09:37:32.534Z,2.20
2019-06-01T09:40:05.552Z,2.33
2019-06-01T09:42:39.062Z,2.05
2019-06-01T09:45:12.073Z,2.12
2019-06-01T09:47:45.212Z,2.40
2019-06-01T09:50:18.019Z,2.05
2019-06-01T09:52:50.700Z,2.60
2019-06-01T09:55:23.912Z,2.35
2019-06-01T09:57:56.784Z,2.15
2019-06-01T10:00:30.327Z,2.40
2019-06-01T10:03:03.192Z,2.40
2019-06-01T10:05:38.638Z,2.55
2019-06-01T10:08:12.107Z,2.30
2019-06-01T10:10:44.983Z,2.55
2019-06-01T10:13:17.757Z,2.20
2019-06-01T10:15:52.452Z,2.30
2019-06-01T10:18:27.214Z,2.40
2019-06-01T10:21:01.023Z,2.20
2019-06-01T10:23:34.530Z,2.47
2019-06-01T10:26:07.835Z,2.20
2019-06-01T10:28:41.893Z,2.05
2019-06-01T10:31:16.076Z,2.25
2019-06-01T10:33:51.543Z,2.20
2019-06-01T10:36:24.532Z,1.70
2019-06-01T10:38:57.452Z,2.10
2019-06-01T10:41:31.230Z,2.42
2019-06-01T10:44:03.894Z,2.00
2019-06-01T10:46:37.608Z,3.00
2019-06-01T10:49:10.783Z,5.50
2019-06-01T10:51:43.732Z,2.62
2019-06-01T10:54:16.617Z,2.30
2019-06-01T10:56:49.305Z,2.15
2019-06-01T10:59:22.472Z,2.08
2019-06-01T11:01:55.302Z,2.40
2019-06-01T11:04:29.254Z,2.02
2019-06-01T11:09:34.820Z,2.08
2019-06-01T11:12:07.614Z,2.17
2019-06-01T11:14:41.330Z,1.95
2019-06-01T11:17:14.134Z,2.17
2019-06-01T11:19:48.502Z,2.20
2019-06-01T11:22:21.437Z,2.10
2019-06-01T11:24:54.342Z,1.92
2019-06-01T11:27:27.184Z,2.20
2019-06-01T11:29:59.997Z,2.08
2019-06-01T11:32:33.744Z,2.20
2019-06-01T11:35:08.093Z,2.37
2019-06-01T11:37:40.822Z,2.50
2019-06-01T11:40:13.586Z,2.55
2019-06-01T11:42:46.438Z,2.17
2019-06-01T11:45:19.230Z,2.52
2019-06-01T11:47:51.752Z,2.50
2019-06-01T11:50:24.482Z,2.37
2019-06-01T11:52:57.334Z,2.10
2019-06-01T11:55:30.223Z,2.10
2019-06-01T11:58:03.101Z,2.10
2019-06-01T12:00:37.435Z,2.15
2019-06-01T12:03:10.347Z,2.40
2019-06-01T12:05:46.079Z,2.90
2019-06-01T12:08:17.923Z,2.22
2019-06-01T12:10:50.923Z,2.83
2019-06-01T12:13:23.612Z,2.70
2019-06-01T12:15:56.563Z,2.98
2019-06-01T12:18:29.612Z,2.30
2019-06-01T12:21:02.357Z,2.42
2019-06-01T12:23:35.053Z,2.40
2019-06-01T12:26:07.773Z,2.40
2019-06-01T12:28:41.545Z,2.33
2019-06-01T12:31:14.463Z,2.47
2019-06-01T12:33:48.669Z,2.22
2019-06-01T12:36:21.796Z,2.40
2019-06-01T12:38:54.672Z,2.33
2019-06-01T12:41:27.532Z,2.77
2019-06-01T12:44:12.612Z,2.25
2019-06-01T12:46:46.820Z,2.40
2019-06-01T12:49:19.923Z,2.12
2019-06-01T12:51:53.127Z,1.87
2019-06-01T12:54:25.862Z,2.37
2019-06-01T12:56:58.674Z,2.20
2019-06-01T12:59:31.312Z,2.20
2019-06-01T13:02:03.922Z,2.70
2019-06-01T13:04:36.563Z,2.30
2019-06-01T13:07:09.355Z,2.37
2019-06-01T13:09:42.064Z,2.27
2019-06-01T13:12:14.824Z,1.85
2019-06-01T13:14:47.671Z,2.10
2019-06-01T13:17:20.546Z,2.17
2019-06-01T13:19:53.272Z,2.20
2019-06-01T13:22:26.106Z,2.00
2019-06-01T13:24:58.775Z,2.22
2019-06-01T13:27:31.442Z,1.85
2019-06-01T13:30:04.425Z,1.95
2019-06-01T13:32:37.333Z,2.00
2019-06-01T13:35:11.102Z,2.27
2019-06-01T13:37:44.516Z,1.92
2019-06-01T13:40:17.302Z,2.08
2019-06-01T13:42:51.104Z,2.05
2019-06-01T13:45:23.902Z,2.52
2019-06-01T13:47:56.515Z,2.30
2019-06-01T13:50:29.062Z,2.30
2019-06-01T13:53:01.604Z,1.82
2019-06-01T13:55:34.186Z,1.90
2019-06-01T13:58:06.773Z,1.45
2019-06-01T14:00:39.623Z,1.27
2019-06-01T14:03:12.027Z,1.40
2019-06-01T14:05:44.756Z,1.60
2019-06-01T14:08:28.422Z,1.80
2019-06-01T14:10:51.764Z,1.70
2019-06-01T14:13:24.342Z,1.60
2019-06-01T14:15:56.813Z,1.80
2019-06-01T14:18:29.403Z,1.72
2019-06-01T14:21:02.033Z,1.32
2019-06-01T14:23:34.836Z,1.45
2019-06-01T14:26:07.433Z,1.32
2019-06-01T14:28:39.842Z,1.42
2019-06-01T14:31:12.242Z,1.37
2019-06-01T14:33:46.380Z,1.50
2019-06-01T14:36:18.954Z,1.50
2019-06-01T14:38:54.304Z,1.10
2019-06-01T14:41:25.653Z,1.20
2019-06-01T14:43:58.455Z,1.50
2019-06-01T14:46:30.983Z,1.40
2019-06-01T14:49:03.591Z,1.20
2019-06-01T14:51:36.099Z,1.47
2019-06-01T14:54:08.783Z,1.07
2019-06-01T14:56:41.393Z,1.40
2019-06-01T14:59:14.002Z,1.30
2019-06-01T15:01:48.194Z,1.00
2019-06-01T15:04:20.762Z,1.02
2019-06-01T15:06:54.364Z,1.40
2019-06-01T15:09:26.945Z,1.20
2019-06-01T15:11:59.438Z,1.10
2019-06-01T15:14:32.039Z,1.30
2019-06-01T15:17:04.715Z,0.90
2019-06-01T15:19:37.786Z,1.30
2019-06-01T15:22:11.833Z,1.60
2019-06-01T15:24:44.342Z,1.50
2019-06-01T15:27:16.822Z,1.07
2019-06-01T15:29:50.621Z,1.20
2019-06-01T15:32:26.459Z,1.17
2019-06-01T15:34:59.877Z,1.22
2019-06-01T15:37:32.292Z,1.20
2019-06-01T15:40:05.032Z,1.10
2019-06-01T15:42:37.943Z,1.22
2019-06-01T15:45:11.295Z,1.40
2019-06-01T15:47:43.934Z,1.60
2019-06-01T15:50:17.752Z,1.47
2019-06-01T15:52:50.522Z,1.42
2019-06-01T15:55:23.112Z,1.25
2019-06-01T15:57:56.550Z,1.57
2019-06-01T16:00:29.096Z,1.22
2019-06-01T16:03:01.633Z,1.40
2019-06-01T16:05:34.056Z,1.37
2019-06-01T16:08:06.722Z,1.30
2019-06-01T16:10:39.312Z,1.15
2019-06-01T16:13:11.715Z,1.37
2019-06-01T16:15:44.302Z,1.20
2019-06-01T16:18:17.192Z,1.17
2019-06-01T16:20:49.942Z,1.30
2019-06-01T16:23:24.433Z,1.20
2019-06-01T16:26:07.516Z,1.62
2019-06-01T16:28:31.102Z,1.00
2019-06-01T16:31:04.809Z,1.40
2019-06-01T16:33:38.562Z,1.25
2019-06-01T16:36:10.997Z,1.22
2019-06-01T16:38:44.682Z,1.47
2019-06-01T16:41:17.152Z,1.22
2019-06-01T16:43:49.623Z,1.20
2019-06-01T16:46:22.205Z,1.42
2019-06-01T16:48:55.438Z,1.42
2019-06-01T16:51:29.632Z,1.45
2019-06-01T16:54:02.231Z,1.02
2019-06-01T16:56:34.992Z,1.35
2019-06-01T16:59:07.991Z,1.47
2019-06-01T17:01:40.563Z,1.35
2019-06-01T17:04:13.117Z,1.65
2019-06-01T17:06:46.791Z,1.10
2019-06-01T17:09:19.587Z,1.15
2019-06-01T17:11:52.063Z,1.10
2019-06-01T17:14:24.662Z,2.20
2019-06-01T17:16:57.302Z,1.17
2019-06-01T17:19:29.922Z,1.42
2019-06-01T17:22:03.570Z,2.50
2019-06-01T17:24:36.227Z,1.77
2019-06-01T17:27:09.020Z,1.37
2019-06-01T17:29:41.609Z,1.10
2019-06-01T17:32:23.837Z,1.32
2019-06-01T17:34:48.863Z,1.40
2019-06-01T17:37:21.732Z,1.20
2019-06-01T17:39:54.252Z,3.20
2019-06-01T17:42:26.707Z,2.92
2019-06-01T17:45:00.715Z,5.62
2019-06-01T17:47:34.501Z,7.30
2019-06-01T17:50:07.733Z,27.50
2019-06-01T17:52:40.602Z,55.95
2019-06-01T17:55:29.914Z,39.00
2019-06-01T17:58:03.542Z,7.30
2019-06-01T18:00:36.405Z,5.25
2019-06-01T18:03:10.075Z,3.22
2019-06-01T18:05:43.823Z,3.35
2019-06-01T18:08:16.233Z,2.52
2019-06-01T18:10:54.474Z,2.45
2019-06-01T18:13:23.484Z,1.62
2019-06-01T18:15:56.032Z,2.10
2019-06-01T18:18:28.593Z,2.30
2019-06-01T18:21:02.240Z,2.52
2019-06-01T18:23:34.986Z,2.02
2019-06-01T18:26:08.966Z,2.12
2019-06-01T18:28:42.112Z,2.33
2019-06-01T18:31:14.663Z,1.60
2019-06-01T18:33:47.243Z,1.92
2019-06-01T18:36:19.813Z,1.92
2019-06-01T18:38:52.383Z,3.50
2019-06-01T18:41:25.011Z,2.52
2019-06-01T18:43:57.518Z,3.15
2019-06-01T18:46:30.282Z,2.75
2019-06-01T18:49:03.792Z,2.47
2019-06-01T18:51:37.606Z,2.58
2019-06-01T18:54:10.778Z,2.75
2019-06-01T18:56:43.519Z,4.15
2019-06-01T18:59:15.946Z,2.27
2019-06-01T19:01:48.512Z,2.10
2019-06-01T19:04:21.462Z,2.10
2019-06-01T19:06:54.042Z,1.85
2019-06-01T19:09:26.582Z,1.87
2019-06-01T19:11:59.173Z,2.12
2019-06-01T19:14:32.447Z,2.05
2019-06-01T19:17:06.226Z,1.92
2019-06-01T19:19:38.854Z,2.37
2019-06-01T19:22:12.509Z,1.98
2019-06-01T19:24:44.912Z,2.10
2019-06-01T19:27:17.502Z,1.80
2019-06-01T19:29:49.942Z,1.80
2019-06-01T19:32:22.944Z,2.47
2019-06-01T19:34:55.392Z,2.50
2019-06-01T19:37:28.100Z,2.30
2019-06-01T19:40:00.684Z,2.35
2019-06-01T19:42:33.273Z,1.95
2019-06-01T19:45:13.972Z,1.72
2019-06-01T19:47:40.573Z,1.85
2019-06-01T19:50:14.293Z,1.87
2019-06-01T19:52:46.892Z,2.05
2019-06-01T19:55:19.814Z,2.15
2019-06-01T19:57:52.443Z,1.90
2019-06-01T20:00:24.832Z,1.77
2019-06-01T20:02:57.434Z,2.72
2019-06-01T20:05:30.023Z,1.98
2019-06-01T20:08:14.269Z,2.00
2019-06-01T20:10:56.032Z,2.05
2019-06-01T20:13:36.832Z,2.22
2019-06-01T20:16:10.713Z,2.22
2019-06-01T20:18:43.202Z,2.37
2019-06-01T20:21:15.879Z,2.40
2019-06-01T20:23:48.423Z,2.90
2019-06-01T20:26:22.736Z,3.15
2019-06-01T20:28:55.313Z,2.70
2019-06-01T20:31:27.882Z,8.48
2019-06-01T20:34:00.435Z,4.35
2019-06-01T20:36:33.078Z,3.17
2019-06-01T20:39:08.206Z,3.02
2019-06-01T20:41:41.212Z,3.50
2019-06-01T20:44:14.732Z,3.92
2019-06-01T20:46:48.722Z,4.10
2019-06-01T20:49:22.675Z,4.40
2019-06-01T20:51:55.894Z,4.72
2019-06-01T20:54:28.504Z,6.33
2019-06-01T20:57:01.199Z,5.90
2019-06-01T20:59:33.763Z,5.90
2019-06-01T21:02:07.238Z,6.10
2019-06-01T21:04:39.868Z,6.10
2019-06-01T21:07:13.732Z,5.45
2019-06-01T21:09:46.628Z,5.33
2019-06-01T21:12:38.366Z,5.62
2019-06-01T21:14:55.953Z,6.30
2019-06-01T21:17:28.653Z,6.62
2019-06-01T21:20:04.502Z,5.15
2019-06-01T21:22:35.802Z,5.92
2019-06-01T21:25:09.162Z,4.67
2019-06-01T21:27:42.141Z,4.30
2019-06-01T21:30:16.933Z,4.62
2019-06-01T21:32:50.113Z,4.30
2019-06-01T21:35:23.463Z,5.65
2019-06-01T21:37:57.463Z,5.30
2019-06-01T21:40:30.362Z,6.37
2019-06-01T21:43:22.929Z,6.37
2019-06-01T21:45:37.682Z,6.30
2019-06-01T21:48:10.662Z,7.25
2019-06-01T21:50:43.552Z,6.42
2019-06-01T21:53:17.856Z,7.15
2019-06-01T21:55:50.902Z,7.33
2019-06-01T21:58:24.527Z,7.55
2019-06-01T22:00:57.714Z,8.40
2019-06-01T22:03:30.803Z,7.35
2019-06-01T22:06:05.862Z,8.30
2019-06-01T22:08:39.155Z,8.65
2019-06-01T22:11:11.923Z,9.13
2019-06-01T22:13:44.670Z,6.75
2019-06-01T22:16:19.428Z,7.33
2019-06-01T22:18:52.433Z,7.30
2019-06-01T22:21:25.884Z,7.53
2019-06-01T22:23:58.772Z,7.65
2019-06-01T22:26:31.561Z,7.65
2019-06-01T22:29:04.754Z,7.33
2019-06-01T22:31:38.764Z,6.75
2019-06-01T22:34:12.944Z,6.42
2019-06-01T22:36:46.565Z,7.05
2019-06-01T22:39:20.919Z,6.45
2019-06-01T22:41:53.877Z,6.58
2019-06-01T22:44:28.292Z,7.30
2019-06-01T22:47:01.106Z,6.42
2019-06-01T22:49:33.764Z,7.22
2019-06-01T22:52:06.905Z,6.90
2019-06-01T22:54:40.104Z,7.62
2019-06-01T22:57:13.354Z,8.15
2019-06-01T22:59:46.344Z,7.25
2019-06-01T23:02:21.541Z,8.18
2019-06-01T23:04:54.606Z,7.15
2019-06-01T23:07:29.274Z,7.50
2019-06-01T23:10:02.134Z,7.37
2019-06-01T23:12:35.456Z,7.92
2019-06-01T23:15:08.637Z,7.35
2019-06-01T23:17:41.204Z,7.28
2019-06-01T23:20:14.224Z,6.75
2019-06-01T23:22:47.034Z,6.35
2019-06-01T23:25:19.934Z,6.53
2019-06-01T23:27:52.795Z,7.42
2019-06-01T23:30:26.357Z,6.75
2019-06-01T23:32:59.354Z,5.95
2019-06-01T23:35:32.774Z,5.97
2019-06-01T23:38:06.203Z,6.33
2019-06-01T23:40:39.755Z,7.28
2019-06-01T23:43:12.463Z,6.58
2019-06-01T23:45:45.514Z,6.00
2019-06-01T23:48:19.706Z,5.90
2019-06-01T23:50:52.556Z,9.05
2019-06-01T23:53:25.519Z,8.43
2019-06-01T23:55:58.775Z,7.25
2019-06-01T23:58:32.625Z,7.58
